Aérodrome :
LOGIN :

S'inscrire | Disclaimer

   EN    FR    IT 

 










Légende :    VFR   VFR Marginal   IFR   IFR Intensif   IFR Très Intensif
Visi : 
Plafond : 
>= 8 km
>= 3000ft
5 à 8 km
1000 à 3000 ft
1500m à 5 km
500 à 1000 ft
800 à 1500m
200 à 500 ft
< 800m
< 200 ft
Symboles :   Orages  Brouillard  Fortes neiges  Fortes précipitations  Vent > 20 kt
SIGMETs :   Divers  Orages  Givrage  Turbulence  Onde Orograph.  Cendres Volcan.






- Altitude de l'aérodrome : 255 ft


ENGC - Gullfaks C oil platform

DERNIER METAR :
  • 260750Z 20029KT 9999 FEW015 BKN030 08/05 Q0996 W07/S5

METARs EXPIRÉS :
  • 260720Z 20028KT 9999 FEW015 BKN030 08/05 Q0996 W07/S5
  • 260650Z 20029KT 9999 SCT015 BKN045 07/05 Q0996 W07/S5
  • 260550Z 20027KT 9999 BKN015 BKN045 07/05 Q0997 W07/S5

TAF TAF ENGC
Valide du 26 à 06h jusqu'au 27 à 06h UTC


2606/2706 22030KT 9999 FEW010 BKN025
PROB30
TEMPO 2606/2615 4000 DZ BKN008
BECMG 2606/2609 19040KT
TEMPO 2612/2619 3000 RA BKN008
BECMG 2617/2619 24022KT
BECMG 2704/2706 18015KT
PROB40
TEMPO 2700/2706 SCT020CB



MET'MAP, la Météo Aéronautique d'un coup d'oeil ! - Copyright ORBIFLY Décembre 2007 - Disclaimer

ORBIFLY MET'MAP TEAM :

Programmation & Développement : Alexandra Zaïnal
Sur une idée originale de : Baudouin d'Aumeries
Assistance à la programmation : Marc-Olivier Méhu
Soutien technique & logistique : Manuel Goepfert

Contact : metmap@orbifly.com




SOURCES & CREDITS :

   NOAA